MSC Karlskrona — CQHV — position and weather

sailwx.info

Track history (hours):
 
Tides and Currents Weather Stations Pressure Air Temp Water Temp Dewpoint Dewpoint Depression Visibility Wind Speed Wind Dir Waves Ship Positions

MSC Karlskrona

Last reported at 2018-Mar-16 16:48 UTC. Time now 2018-Jun-25 00:30 UTC.
Position N 53°35' E 008°32'.
Warning: this ship's position is months out of date.

Length 318 m; draft 11.7 m.

Type: Ship (hazmat cat A). MMSI: 255805597.

Date/timePositionNaut miles runAvg speedWind from/ knotsBaromVisibWave heightAir tempDewpointWater temp
2018-Mar-16 16:48N 53°35' E 008°32'0 0.0
2018-Mar-16 16:30N 53°35' E 008°32'0 0.0
2018-Mar-16 16:00N 53°35' E 008°32'0 0.0
2018-Mar-16 15:30N 53°35' E 008°32'0 0.0
2018-Mar-16 15:00N 53°35' E 008°32'0 0.0
2018-Mar-16 14:30N 53°35' E 008°32'0 0.0
2018-Mar-16 14:00N 53°35' E 008°32'0 0.0
2018-Mar-16 13:30N 53°35' E 008°32'0 0.0
2018-Mar-16 13:00N 53°35' E 008°32'0 0.0
2018-Mar-16 12:30N 53°35' E 008°32'0 0.0
2018-Mar-16 12:00N 53°35' E 008°32'0 0.2
2018-Mar-16 11:30N 53°35' E 008°32'3 5.3
2018-Mar-16 11:00N 53°37' E 008°29'814.6
2018-Mar-16 10:27N 53°42' E 008°19'715.7
2018-Mar-16 10:01N 53°47' E 008°10'612.0
2018-Mar-16 09:30N 53°51' E 008°02'4 8.5
2018-Mar-16 09:00N 53°52' E 007°55'6 8.7
2018-Mar-16 08:22N 53°53' E 007°46'2 4.5
2018-Mar-16 07:49N 53°54' E 007°42'1 4.3
2018-Mar-16 07:30N 53°55' E 007°44'2 4.2
2018-Mar-16 06:59N 53°53' E 007°46'611.8
2018-Mar-16 06:30N 53°54' E 007°36'7316.7
2018-Mar-16 02:08N 53°36' E 005°37'416.5
2018-Mar-16 01:55N 53°35' E 005°31'716.6
2018-Mar-16 01:30N 53°33' E 005°20'816.4
2018-Mar-16 01:00N 53°31' E 005°07'816.4
2018-Mar-16 00:30N 53°28' E 004°54'816.3
2018-Mar-16 00:00N 53°24' E 004°42'916.4
2018-Mar-15 23:27N 53°16' E 004°35'816.7
2018-Mar-15 22:59N 53°09' E 004°30'816.7
2018-Mar-15 22:30N 53°02' E 004°24'917.0
2018-Mar-15 22:00N 52°54' E 004°18'916.8
2018-Mar-15 21:29N 52°47' E 004°10'9016.7
2018-Mar-15 16:06N 51°54' E 002°11'216.9
2018-Mar-15 15:59N 51°53' E 002°09'817.1
2018-Mar-15 15:30N 51°50' E 001°56'714.6
2018-Mar-15 15:00N 51°51' E 001°45'2 4.9
2018-Mar-15 14:30N 51°51' E 001°41'510.2
2018-Mar-15 14:01N 51°53' E 001°34'612.1
2018-Mar-15 13:30N 51°56' E 001°25'4 8.5
2018-Mar-15 13:00N 51°57' E 001°18'1 1.6
2018-Mar-15 12:30N 51°58' E 001°17'0 0.0
2018-Mar-15 12:00N 51°58' E 001°17'0 0.0
2018-Mar-15 11:30N 51°58' E 001°17'0 0.0
2018-Mar-15 11:00N 51°58' E 001°17'0 0.0
2018-Mar-15 10:30N 51°58' E 001°17'0 0.0
2018-Mar-15 10:00N 51°58' E 001°17'0 0.0
2018-Mar-15 09:30N 51°58' E 001°17'0 0.0
2018-Mar-15 09:00N 51°58' E 001°17'0 0.0
2018-Mar-15 08:30N 51°58' E 001°17'0 0.0
2018-Mar-15 08:00N 51°58' E 001°17'0 0.0
2018-Mar-15 07:30N 51°58' E 001°17'0 0.0
2018-Mar-15 07:00N 51°58' E 001°17'0 0.0
2018-Mar-15 06:30N 51°58' E 001°17'0 0.0
2018-Mar-15 06:00N 51°58' E 001°17'0 0.0
2018-Mar-15 05:30N 51°58' E 001°17'0 0.0
2018-Mar-15 05:00N 51°58' E 001°17'0 0.0
2018-Mar-15 04:30N 51°58' E 001°17'0 0.0
2018-Mar-15 04:00N 51°58' E 001°17'0 0.0
2018-Mar-15 03:30N 51°58' E 001°17'0 0.0
2018-Mar-15 03:00N 51°58' E 001°17'0 0.0
2018-Mar-15 02:30N 51°58' E 001°17'0 0.0
2018-Mar-15 02:00N 51°58' E 001°17'0 0.0
2018-Mar-15 01:30N 51°58' E 001°17'0 0.0
2018-Mar-15 01:00N 51°58' E 001°17'0 0.0
2018-Mar-15 00:30N 51°58' E 001°17'0 0.0
2018-Mar-15 00:00N 51°58' E 001°17'0 0.0
2018-Mar-14 23:30N 51°58' E 001°17'0 0.0
2018-Mar-14 23:00N 51°58' E 001°17'0 0.0
2018-Mar-14 22:30N 51°58' E 001°17'0 0.0
2018-Mar-14 22:00N 51°58' E 001°17'0 0.0
2018-Mar-14 21:30N 51°58' E 001°17'0 0.0
2018-Mar-14 21:00N 51°58' E 001°17'0 0.0
2018-Mar-14 20:30N 51°58' E 001°17'0 0.0
2018-Mar-14 20:00N 51°58' E 001°17'0 0.0
2018-Mar-14 19:30N 51°58' E 001°17'0 0.0
2018-Mar-14 19:00N 51°58' E 001°17'0 0.0
2018-Mar-14 18:30N 51°58' E 001°17'0 0.0
2018-Mar-14 18:00N 51°58' E 001°17'0 0.0
2018-Mar-14 17:28N 51°58' E 001°17'0 0.0
2018-Mar-14 16:58N 51°58' E 001°17'0 0.0
2018-Mar-14 16:28N 51°58' E 001°17'0 0.0
2018-Mar-14 15:58N 51°58' E 001°17'0 0.0
2018-Mar-14 15:28N 51°58' E 001°17'0 0.1
2018-Mar-14 15:00N 51°58' E 001°17'1 2.0
2018-Mar-14 14:30N 51°57' E 001°18'2 4.5
2018-Mar-14 14:01N 51°56' E 001°21'713.0
2018-Mar-14 13:31N 51°56' E 001°31'611.9
2018-Mar-14 13:00N 51°52' E 001°38'2 4.2
2018-Mar-14 12:30N 51°54' E 001°40'0 0.1
2018-Mar-14 12:00N 51°54' E 001°40'0 0.1
2018-Mar-14 11:30N 51°54' E 001°40'0 0.1
2018-Mar-14 11:00N 51°54' E 001°40'0 0.1
2018-Mar-14 10:30N 51°54' E 001°40'0 0.1
2018-Mar-14 10:00N 51°54' E 001°40'0 0.3
2018-Mar-14 09:30N 51°54' E 001°40'0 0.2
2018-Mar-14 09:00N 51°54' E 001°40'0 0.1
2018-Mar-14 08:30N 51°54' E 001°40'0 0.0
2018-Mar-14 08:00N 51°54' E 001°40'0 0.0
2018-Mar-14 07:30N 51°54' E 001°40'0 0.0
2018-Mar-14 07:00N 51°54' E 001°40'0 0.0
2018-Mar-14 06:30N 51°54' E 001°40'0 0.2
2018-Mar-14 06:00N 51°54' E 001°40'2 3.1
2018-Mar-14 05:31N 51°52' E 001°41'510.4
2018-Mar-14 05:00N 51°50' E 001°48'4 8.9
2018-Mar-14 04:30N 51°46' E 001°50'5 9.9
2018-Mar-14 04:00N 51°41' E 001°50'5 9.9
2018-Mar-14 03:30N 51°36' E 001°50'5 9.3
2018-Mar-14 03:01N 51°32' E 001°53'5 9.6
2018-Mar-14 02:30N 51°28' E 001°57'5 9.3
2018-Mar-14 02:00N 51°25' E 002°04'5 9.0
2018-Mar-14 01:30N 51°23' E 002°10'4 8.9
2018-Mar-14 01:00N 51°21' E 002°16'4 8.0
2018-Mar-14 00:30N 51°22' E 002°23'4 8.2
2018-Mar-14 00:00N 51°23' E 002°29'5 9.2
2018-Mar-13 23:30N 51°23' E 002°37'610.2
2018-Mar-13 22:57N 51°24' E 002°46'510.7
2018-Mar-13 22:30N 51°25' E 002°53'815.7
2018-Mar-13 22:00N 51°24' E 003°05'714.8
2018-Mar-13 21:30N 51°25' E 003°17'714.8
2018-Mar-13 21:00N 51°25' E 003°29'510.8
2018-Mar-13 20:30N 51°26' E 003°37'510.2
2018-Mar-13 20:00N 51°23' E 003°44'713.3
2018-Mar-13 19:31N 51°22' E 003°54'612.5
2018-Mar-13 19:01N 51°26' E 004°01'611.4
2018-Mar-13 18:31N 51°22' E 004°08'4 8.3
2018-Mar-13 18:00N 51°21' E 004°15'4 7.1
2018-Mar-13 17:30N 51°18' E 004°16'1 1.1
2018-Mar-13 17:00N 51°17' E 004°15'0 0.0
2018-Mar-13 16:30N 51°17' E 004°15'0 0.0
2018-Mar-13 16:00N 51°17' E 004°15'0 0.0
2018-Mar-13 15:30N 51°17' E 004°15'0 0.0
2018-Mar-13 15:00N 51°17' E 004°15'0 0.0
2018-Mar-13 14:30N 51°17' E 004°15'0 0.0
2018-Mar-13 14:00N 51°17' E 004°15'0 0.0
2018-Mar-13 13:30N 51°17' E 004°15'0 0.0
2018-Mar-13 13:00N 51°17' E 004°15'0 0.0
2018-Mar-13 12:30N 51°17' E 004°15'0 0.0
2018-Mar-13 12:00N 51°17' E 004°15'0 0.0
2018-Mar-13 11:30N 51°17' E 004°15'0 0.0
2018-Mar-13 11:01N 51°17' E 004°15'0 0.0
2018-Mar-13 10:28N 51°17' E 004°15'0 0.0
2018-Mar-13 10:00N 51°17' E 004°15'0 0.0
2018-Mar-13 09:30N 51°17' E 004°15'0 0.0
2018-Mar-13 09:00N 51°17' E 004°15'0 0.0
2018-Mar-13 08:30N 51°17' E 004°15'0 0.0
2018-Mar-13 07:58N 51°17' E 004°15'0 0.0
2018-Mar-13 07:29N 51°17' E 004°15'0 0.0
2018-Mar-13 07:00N 51°17' E 004°15'0 0.0
2018-Mar-13 06:30N 51°17' E 004°15'0 0.0
2018-Mar-13 05:58N 51°17' E 004°15'0 0.0
2018-Mar-13 05:28N 51°17' E 004°15'0 0.0
2018-Mar-13 05:00N 51°17' E 004°15'0 0.0
2018-Mar-13 04:30N 51°17' E 004°15'0 0.0
2018-Mar-13 04:00N 51°17' E 004°15'0 0.0
2018-Mar-13 03:30N 51°17' E 004°15'0 0.0
2018-Mar-13 03:00N 51°17' E 004°15'0 0.0
2018-Mar-13 02:28N 51°17' E 004°15'0 0.0
2018-Mar-13 02:00N 51°17' E 004°15'0 0.0
2018-Mar-13 01:28N 51°17' E 004°15'0 0.0
2018-Mar-13 01:00N 51°17' E 004°15'0 0.0
2018-Mar-13 00:30N 51°17' E 004°15'0 0.0
2018-Mar-13 00:00N 51°17' E 004°15'0 0.0
2018-Mar-12 23:30N 51°17' E 004°15'0 0.0
2018-Mar-12 23:00N 51°17' E 004°15'0 0.0
2018-Mar-12 22:30N 51°17' E 004°15'0 0.0
2018-Mar-12 22:00N 51°17' E 004°15'0 0.0
2018-Mar-12 21:30N 51°17' E 004°15'0 0.0
2018-Mar-12 21:00N 51°17' E 004°15'0 0.0
2018-Mar-12 20:30N 51°17' E 004°15'0 0.0
2018-Mar-12 20:00N 51°17' E 004°15'0 0.0
2018-Mar-12 19:28N 51°17' E 004°15'0 0.0
2018-Mar-12 18:58N 51°17' E 004°15'0 0.0
2018-Mar-12 18:28N 51°17' E 004°15'0 0.0
2018-Mar-12 17:52N 51°17' E 004°15'0 0.0
2018-Mar-12 17:28N 51°17' E 004°15'0 0.0
2018-Mar-12 16:58N 51°17' E 004°15'0 0.0
2018-Mar-12 16:28N 51°17' E 004°15'0 0.0
2018-Mar-12 15:55N 51°17' E 004°15'0 0.0
2018-Mar-12 15:28N 51°17' E 004°15'0 0.0
2018-Mar-12 14:58N 51°17' E 004°15'0 0.0
2018-Mar-12 14:28N 51°17' E 004°15'0 0.0
2018-Mar-12 13:58N 51°17' E 004°15'0 0.0
2018-Mar-12 13:28N 51°17' E 004°15'0 0.0
2018-Mar-12 12:58N 51°17' E 004°15'0 0.0
2018-Mar-12 12:28N 51°17' E 004°15'0 0.0
2018-Mar-12 11:58N 51°17' E 004°15'0 0.0
2018-Mar-12 11:28N 51°17' E 004°15'0 0.0
2018-Mar-12 10:58N 51°17' E 004°15'0 0.0
2018-Mar-12 10:28N 51°17' E 004°15'0 0.0
2018-Mar-12 09:58N 51°17' E 004°15'0 0.0
2018-Mar-12 09:28N 51°17' E 004°15'0 0.0
2018-Mar-12 08:58N 51°17' E 004°15'0 0.0
2018-Mar-12 08:28N 51°17' E 004°15'0 0.0
2018-Mar-12 07:58N 51°17' E 004°15'0 0.0
2018-Mar-12 07:28N 51°17' E 004°15'0 0.0
2018-Mar-12 06:58N 51°17' E 004°15'0 0.0
2018-Mar-12 06:28N 51°17' E 004°15'0 0.0
2018-Mar-12 05:58N 51°17' E 004°15'0 0.0
2018-Mar-12 05:28N 51°17' E 004°15'0 0.0
2018-Mar-12 04:58N 51°17' E 004°15'0 0.5
2018-Mar-12 04:30N 51°18' E 004°16'1 2.1
2018-Mar-12 04:00N 51°18' E 004°16'3 5.5
2018-Mar-12 03:30N 51°21' E 004°15'4 8.0
2018-Mar-12 03:00N 51°23' E 004°09'4 8.8
2018-Mar-12 02:30N 51°23' E 004°02'3 6.4
2018-Mar-12 02:00N 51°25' E 003°58'611.3
2018-Mar-12 01:31N 51°21' E 003°51'510.5
2018-Mar-12 01:01N 51°23' E 003°43'5 9.9
2018-Mar-12 00:31N 51°26' E 003°38'4 8.8
2018-Mar-12 00:00N 51°25' E 003°31'714.2
2018-Mar-11 23:30N 51°24' E 003°19'815.6
2018-Mar-11 23:00N 51°24' E 003°07'816.0
2018-Mar-11 22:30N 51°25' E 002°54'814.4
2018-Mar-11 21:59N 51°23' E 002°42'4 9.1
2018-Mar-11 21:29N 51°22' E 002°35'510.5
2018-Mar-11 21:00N 51°21' E 002°27'611.0
2018-Mar-11 20:30N 51°19' E 002°19'511.0
2018-Mar-11 20:00N 51°16' E 002°12'611.2
2018-Mar-11 19:30N 51°14' E 002°04'611.1
2018-Mar-11 19:00N 51°11' E 001°56'611.3
2018-Mar-11 18:30N 51°08' E 001°48'611.0
2018-Mar-11 18:00N 51°05' E 001°42'611.3
2018-Mar-11 17:30N 51°01' E 001°35'611.3
2018-Mar-11 17:00N 50°56' E 001°29'611.2
2018-Mar-11 16:30N 50°51' E 001°25'611.5
2018-Mar-11 16:00N 50°46' E 001°22'610.9
2018-Mar-11 15:29N 50°41' E 001°17'511.1
2018-Mar-11 15:00N 50°38' E 001°11'1710.9
2018-Mar-11 13:27N 50°28' E 000°49'611.2
2018-Mar-11 12:54N 50°27' E 000°40'611.1
2018-Mar-11 12:24N 50°25' E 000°31'511.2
2018-Mar-11 12:00N 50°24' E 000°24'611.2
2018-Mar-11 11:30N 50°22' E 000°16'611.1
2018-Mar-11 10:59N 50°20' E 000°07'611.2
2018-Mar-11 10:28N 50°18' W 000°01'511.2
2018-Mar-11 10:00N 50°17' W 000°09'611.3
2018-Mar-11 09:29N 50°16' W 000°18'1211.2
2018-Mar-11 08:23N 50°13' W 000°37'511.1
2018-Mar-11 07:57N 50°11' W 000°44'611.2
2018-Mar-11 07:26N 50°10' W 000°53'511.1
2018-Mar-11 07:00N 50°09' W 000°60'511.0
2018-Mar-11 06:31N 50°07' W 001°08'611.1
2018-Mar-11 06:00N 50°06' W 001°16'510.8
2018-Mar-11 05:30N 50°04' W 001°24'611.0
2018-Mar-11 05:00N 50°03' W 001°33'511.0
2018-Mar-11 04:30N 50°02' W 001°41'510.9
2018-Mar-11 04:00N 50°00' W 001°49'611.0
2018-Mar-11 03:30N 49°59' W 001°58'611.1
2018-Mar-11 03:00N 49°58' W 002°06'1211.2
2018-Mar-11 01:54N 49°55' W 002°25'511.2
2018-Mar-11 01:27N 49°54' W 002°33'511.2
2018-Mar-11 01:00N 49°53' W 002°40'611.3
2018-Mar-11 00:30N 49°51' W 002°49'611.2
2018-Mar-11 00:00N 49°50' W 002°57'611.2
2018-Mar-10 23:28N 49°50' W 003°06'511.2
2018-Mar-10 23:00N 49°49' W 003°14'611.2
2018-Mar-10 22:30N 49°48' W 003°23'611.2
2018-Mar-10 22:00N 49°48' W 003°32'611.1
2018-Mar-10 21:30N 49°47' W 003°40'611.1
2018-Mar-10 21:00N 49°47' W 003°49'611.2
2018-Mar-10 20:30N 49°46' W 003°57'611.2
2018-Mar-10 19:56N 49°46' W 004°07'611.2
2018-Mar-10 19:24N 49°45' W 004°16'411.1
2018-Mar-10 19:00N 49°45' W 004°23'711.1
2018-Mar-10 18:22N 49°44' W 004°34'811.1
2018-Mar-10 17:41N 49°43' W 004°46'2211.1
2018-Mar-10 15:40N 49°42' W 005°20'1011.1
2018-Mar-10 14:44N 49°41' W 005°36'1111.1
2018-Mar-10 13:47N 49°40' W 005°52'1011.1
2018-Mar-10 12:56N 49°39' W 006°07'511.1
2018-Mar-10 12:28N 49°39' W 006°15'911.0
2018-Mar-10 11:40N 49°39' W 006°28'  
Track history (hours):
 
Tides and Currents Weather Stations Pressure Air Temp Water Temp Dewpoint Dewpoint Depression Visibility Wind Speed Wind Dir Waves Ship Positions

MSC Karlskrona

Last reported at 2018-Mar-16 16:48 UTC. Time now 2018-Jun-25 00:30 UTC.
Position N 53°35' E 008°32'.
Warning: this ship's position is months out of date.

Length 318 m; draft 11.7 m.

Type: Ship (hazmat cat A). MMSI: 255805597.

Date/timePositionNaut miles runAvg speedWind from/ knotsBaromVisibWave heightAir tempDewpointWater temp
2018-Mar-16 16:48N 53°35' E 008°32'0 0.0
2018-Mar-16 16:30N 53°35' E 008°32'0 0.0
2018-Mar-16 16:00N 53°35' E 008°32'0 0.0
2018-Mar-16 15:30N 53°35' E 008°32'0 0.0
2018-Mar-16 15:00N 53°35' E 008°32'0 0.0
2018-Mar-16 14:30N 53°35' E 008°32'0 0.0
2018-Mar-16 14:00N 53°35' E 008°32'0 0.0
2018-Mar-16 13:30N 53°35' E 008°32'0 0.0
2018-Mar-16 13:00N 53°35' E 008°32'0 0.0
2018-Mar-16 12:30N 53°35' E 008°32'0 0.0
2018-Mar-16 12:00N 53°35' E 008°32'0 0.2
2018-Mar-16 11:30N 53°35' E 008°32'3 5.3
2018-Mar-16 11:00N 53°37' E 008°29'814.6
2018-Mar-16 10:27N 53°42' E 008°19'715.7
2018-Mar-16 10:01N 53°47' E 008°10'612.0
2018-Mar-16 09:30N 53°51' E 008°02'4 8.5
2018-Mar-16 09:00N 53°52' E 007°55'6 8.7
2018-Mar-16 08:22N 53°53' E 007°46'2 4.5
2018-Mar-16 07:49N 53°54' E 007°42'1 4.3
2018-Mar-16 07:30N 53°55' E 007°44'2 4.2
2018-Mar-16 06:59N 53°53' E 007°46'611.8
2018-Mar-16 06:30N 53°54' E 007°36'7316.7
2018-Mar-16 02:08N 53°36' E 005°37'416.5
2018-Mar-16 01:55N 53°35' E 005°31'716.6
2018-Mar-16 01:30N 53°33' E 005°20'816.4
2018-Mar-16 01:00N 53°31' E 005°07'816.4
2018-Mar-16 00:30N 53°28' E 004°54'816.3
2018-Mar-16 00:00N 53°24' E 004°42'916.4
2018-Mar-15 23:27N 53°16' E 004°35'816.7
2018-Mar-15 22:59N 53°09' E 004°30'816.7
2018-Mar-15 22:30N 53°02' E 004°24'917.0
2018-Mar-15 22:00N 52°54' E 004°18'916.8
2018-Mar-15 21:29N 52°47' E 004°10'9016.7
2018-Mar-15 16:06N 51°54' E 002°11'216.9
2018-Mar-15 15:59N 51°53' E 002°09'817.1
2018-Mar-15 15:30N 51°50' E 001°56'714.6
2018-Mar-15 15:00N 51°51' E 001°45'2 4.9
2018-Mar-15 14:30N 51°51' E 001°41'510.2
2018-Mar-15 14:01N 51°53' E 001°34'612.1
2018-Mar-15 13:30N 51°56' E 001°25'4 8.5
2018-Mar-15 13:00N 51°57' E 001°18'1 1.6
2018-Mar-15 12:30N 51°58' E 001°17'0 0.0
2018-Mar-15 12:00N 51°58' E 001°17'0 0.0
2018-Mar-15 11:30N 51°58' E 001°17'0 0.0
2018-Mar-15 11:00N 51°58' E 001°17'0 0.0
2018-Mar-15 10:30N 51°58' E 001°17'0 0.0
2018-Mar-15 10:00N 51°58' E 001°17'0 0.0
2018-Mar-15 09:30N 51°58' E 001°17'0 0.0
2018-Mar-15 09:00N 51°58' E 001°17'0 0.0
2018-Mar-15 08:30N 51°58' E 001°17'0 0.0
2018-Mar-15 08:00N 51°58' E 001°17'0 0.0
2018-Mar-15 07:30N 51°58' E 001°17'0 0.0
2018-Mar-15 07:00N 51°58' E 001°17'0 0.0
2018-Mar-15 06:30N 51°58' E 001°17'0 0.0
2018-Mar-15 06:00N 51°58' E 001°17'0 0.0
2018-Mar-15 05:30N 51°58' E 001°17'0 0.0
2018-Mar-15 05:00N 51°58' E 001°17'0 0.0
2018-Mar-15 04:30N 51°58' E 001°17'0 0.0
2018-Mar-15 04:00N 51°58' E 001°17'0 0.0
2018-Mar-15 03:30N 51°58' E 001°17'0 0.0
2018-Mar-15 03:00N 51°58' E 001°17'0 0.0
2018-Mar-15 02:30N 51°58' E 001°17'0 0.0
2018-Mar-15 02:00N 51°58' E 001°17'0 0.0
2018-Mar-15 01:30N 51°58' E 001°17'0 0.0
2018-Mar-15 01:00N 51°58' E 001°17'0 0.0
2018-Mar-15 00:30N 51°58' E 001°17'0 0.0
2018-Mar-15 00:00N 51°58' E 001°17'0 0.0
2018-Mar-14 23:30N 51°58' E 001°17'0 0.0
2018-Mar-14 23:00N 51°58' E 001°17'0 0.0
2018-Mar-14 22:30N 51°58' E 001°17'0 0.0
2018-Mar-14 22:00N 51°58' E 001°17'0 0.0
2018-Mar-14 21:30N 51°58' E 001°17'0 0.0
2018-Mar-14 21:00N 51°58' E 001°17'0 0.0
2018-Mar-14 20:30N 51°58' E 001°17'0 0.0
2018-Mar-14 20:00N 51°58' E 001°17'0 0.0
2018-Mar-14 19:30N 51°58' E 001°17'0 0.0
2018-Mar-14 19:00N 51°58' E 001°17'0 0.0
2018-Mar-14 18:30N 51°58' E 001°17'0 0.0
2018-Mar-14 18:00N 51°58' E 001°17'0 0.0
2018-Mar-14 17:28N 51°58' E 001°17'0 0.0
2018-Mar-14 16:58N 51°58' E 001°17'0 0.0
2018-Mar-14 16:28N 51°58' E 001°17'0 0.0
2018-Mar-14 15:58N 51°58' E 001°17'0 0.0
2018-Mar-14 15:28N 51°58' E 001°17'0 0.1
2018-Mar-14 15:00N 51°58' E 001°17'1 2.0
2018-Mar-14 14:30N 51°57' E 001°18'2 4.5
2018-Mar-14 14:01N 51°56' E 001°21'713.0
2018-Mar-14 13:31N 51°56' E 001°31'611.9
2018-Mar-14 13:00N 51°52' E 001°38'2 4.2
2018-Mar-14 12:30N 51°54' E 001°40'0 0.1
2018-Mar-14 12:00N 51°54' E 001°40'0 0.1
2018-Mar-14 11:30N 51°54' E 001°40'0 0.1
2018-Mar-14 11:00N 51°54' E 001°40'0 0.1
2018-Mar-14 10:30N 51°54' E 001°40'0 0.1
2018-Mar-14 10:00N 51°54' E 001°40'0 0.3
2018-Mar-14 09:30N 51°54' E 001°40'0 0.2
2018-Mar-14 09:00N 51°54' E 001°40'0 0.1
2018-Mar-14 08:30N 51°54' E 001°40'0 0.0
2018-Mar-14 08:00N 51°54' E 001°40'0 0.0
2018-Mar-14 07:30N 51°54' E 001°40'0 0.0
2018-Mar-14 07:00N 51°54' E 001°40'0 0.0
2018-Mar-14 06:30N 51°54' E 001°40'0 0.2
2018-Mar-14 06:00N 51°54' E 001°40'2 3.1
2018-Mar-14 05:31N 51°52' E 001°41'510.4
2018-Mar-14 05:00N 51°50' E 001°48'4 8.9
2018-Mar-14 04:30N 51°46' E 001°50'5 9.9
2018-Mar-14 04:00N 51°41' E 001°50'5 9.9
2018-Mar-14 03:30N 51°36' E 001°50'5 9.3
2018-Mar-14 03:01N 51°32' E 001°53'5 9.6
2018-Mar-14 02:30N 51°28' E 001°57'5 9.3
2018-Mar-14 02:00N 51°25' E 002°04'5 9.0
2018-Mar-14 01:30N 51°23' E 002°10'4 8.9
2018-Mar-14 01:00N 51°21' E 002°16'4 8.0
2018-Mar-14 00:30N 51°22' E 002°23'4 8.2
2018-Mar-14 00:00N 51°23' E 002°29'5 9.2
2018-Mar-13 23:30N 51°23' E 002°37'610.2
2018-Mar-13 22:57N 51°24' E 002°46'510.7
2018-Mar-13 22:30N 51°25' E 002°53'815.7
2018-Mar-13 22:00N 51°24' E 003°05'714.8
2018-Mar-13 21:30N 51°25' E 003°17'714.8
2018-Mar-13 21:00N 51°25' E 003°29'510.8
2018-Mar-13 20:30N 51°26' E 003°37'510.2
2018-Mar-13 20:00N 51°23' E 003°44'713.3
2018-Mar-13 19:31N 51°22' E 003°54'612.5
2018-Mar-13 19:01N 51°26' E 004°01'611.4
2018-Mar-13 18:31N 51°22' E 004°08'4 8.3
2018-Mar-13 18:00N 51°21' E 004°15'4 7.1
2018-Mar-13 17:30N 51°18' E 004°16'1 1.1
2018-Mar-13 17:00N 51°17' E 004°15'0 0.0
2018-Mar-13 16:30N 51°17' E 004°15'0 0.0
2018-Mar-13 16:00N 51°17' E 004°15'0 0.0
2018-Mar-13 15:30N 51°17' E 004°15'0 0.0
2018-Mar-13 15:00N 51°17' E 004°15'0 0.0
2018-Mar-13 14:30N 51°17' E 004°15'0 0.0
2018-Mar-13 14:00N 51°17' E 004°15'0 0.0
2018-Mar-13 13:30N 51°17' E 004°15'0 0.0
2018-Mar-13 13:00N 51°17' E 004°15'0 0.0
2018-Mar-13 12:30N 51°17' E 004°15'0 0.0
2018-Mar-13 12:00N 51°17' E 004°15'0 0.0
2018-Mar-13 11:30N 51°17' E 004°15'0 0.0
2018-Mar-13 11:01N 51°17' E 004°15'0 0.0
2018-Mar-13 10:28N 51°17' E 004°15'0 0.0
2018-Mar-13 10:00N 51°17' E 004°15'0 0.0
2018-Mar-13 09:30N 51°17' E 004°15'0 0.0
2018-Mar-13 09:00N 51°17' E 004°15'0 0.0
2018-Mar-13 08:30N 51°17' E 004°15'0 0.0
2018-Mar-13 07:58N 51°17' E 004°15'0 0.0
2018-Mar-13 07:29N 51°17' E 004°15'0 0.0
2018-Mar-13 07:00N 51°17' E 004°15'0 0.0
2018-Mar-13 06:30N 51°17' E 004°15'0 0.0
2018-Mar-13 05:58N 51°17' E 004°15'0 0.0
2018-Mar-13 05:28N 51°17' E 004°15'0 0.0
2018-Mar-13 05:00N 51°17' E 004°15'0 0.0
2018-Mar-13 04:30N 51°17' E 004°15'0 0.0
2018-Mar-13 04:00N 51°17' E 004°15'0 0.0
2018-Mar-13 03:30N 51°17' E 004°15'0 0.0
2018-Mar-13 03:00N 51°17' E 004°15'0 0.0
2018-Mar-13 02:28N 51°17' E 004°15'0 0.0
2018-Mar-13 02:00N 51°17' E 004°15'0 0.0
2018-Mar-13 01:28N 51°17' E 004°15'0 0.0
2018-Mar-13 01:00N 51°17' E 004°15'0 0.0
2018-Mar-13 00:30N 51°17' E 004°15'0 0.0
2018-Mar-13 00:00N 51°17' E 004°15'0 0.0
2018-Mar-12 23:30N 51°17' E 004°15'0 0.0
2018-Mar-12 23:00N 51°17' E 004°15'0 0.0
2018-Mar-12 22:30N 51°17' E 004°15'0 0.0
2018-Mar-12 22:00N 51°17' E 004°15'0 0.0
2018-Mar-12 21:30N 51°17' E 004°15'0 0.0
2018-Mar-12 21:00N 51°17' E 004°15'0 0.0
2018-Mar-12 20:30N 51°17' E 004°15'0 0.0
2018-Mar-12 20:00N 51°17' E 004°15'0 0.0
2018-Mar-12 19:28N 51°17' E 004°15'0 0.0
2018-Mar-12 18:58N 51°17' E 004°15'0 0.0
2018-Mar-12 18:28N 51°17' E 004°15'0 0.0
2018-Mar-12 17:52N 51°17' E 004°15'0 0.0
2018-Mar-12 17:28N 51°17' E 004°15'0 0.0
2018-Mar-12 16:58N 51°17' E 004°15'0 0.0
2018-Mar-12 16:28N 51°17' E 004°15'0 0.0
2018-Mar-12 15:55N 51°17' E 004°15'0 0.0
2018-Mar-12 15:28N 51°17' E 004°15'0 0.0
2018-Mar-12 14:58N 51°17' E 004°15'0 0.0
2018-Mar-12 14:28N 51°17' E 004°15'0 0.0
2018-Mar-12 13:58N 51°17' E 004°15'0 0.0
2018-Mar-12 13:28N 51°17' E 004°15'0 0.0
2018-Mar-12 12:58N 51°17' E 004°15'0 0.0
2018-Mar-12 12:28N 51°17' E 004°15'0 0.0
2018-Mar-12 11:58N 51°17' E 004°15'0 0.0
2018-Mar-12 11:28N 51°17' E 004°15'0 0.0
2018-Mar-12 10:58N 51°17' E 004°15'0 0.0
2018-Mar-12 10:28N 51°17' E 004°15'0 0.0
2018-Mar-12 09:58N 51°17' E 004°15'0 0.0
2018-Mar-12 09:28N 51°17' E 004°15'0 0.0
2018-Mar-12 08:58N 51°17' E 004°15'0 0.0
2018-Mar-12 08:28N 51°17' E 004°15'0 0.0
2018-Mar-12 07:58N 51°17' E 004°15'0 0.0
2018-Mar-12 07:28N 51°17' E 004°15'0 0.0
2018-Mar-12 06:58N 51°17' E 004°15'0 0.0
2018-Mar-12 06:28N 51°17' E 004°15'0 0.0
2018-Mar-12 05:58N 51°17' E 004°15'0 0.0
2018-Mar-12 05:28N 51°17' E 004°15'0 0.0
2018-Mar-12 04:58N 51°17' E 004°15'0 0.5
2018-Mar-12 04:30N 51°18' E 004°16'1 2.1
2018-Mar-12 04:00N 51°18' E 004°16'3 5.5
2018-Mar-12 03:30N 51°21' E 004°15'4 8.0
2018-Mar-12 03:00N 51°23' E 004°09'4 8.8
2018-Mar-12 02:30N 51°23' E 004°02'3 6.4
2018-Mar-12 02:00N 51°25' E 003°58'611.3
2018-Mar-12 01:31N 51°21' E 003°51'510.5
2018-Mar-12 01:01N 51°23' E 003°43'5 9.9
2018-Mar-12 00:31N 51°26' E 003°38'4 8.8
2018-Mar-12 00:00N 51°25' E 003°31'714.2
2018-Mar-11 23:30N 51°24' E 003°19'815.6
2018-Mar-11 23:00N 51°24' E 003°07'816.0
2018-Mar-11 22:30N 51°25' E 002°54'814.4
2018-Mar-11 21:59N 51°23' E 002°42'4 9.1
2018-Mar-11 21:29N 51°22' E 002°35'510.5
2018-Mar-11 21:00N 51°21' E 002°27'611.0
2018-Mar-11 20:30N 51°19' E 002°19'511.0
2018-Mar-11 20:00N 51°16' E 002°12'611.2
2018-Mar-11 19:30N 51°14' E 002°04'611.1
2018-Mar-11 19:00N 51°11' E 001°56'611.3
2018-Mar-11 18:30N 51°08' E 001°48'611.0
2018-Mar-11 18:00N 51°05' E 001°42'611.3
2018-Mar-11 17:30N 51°01' E 001°35'611.3
2018-Mar-11 17:00N 50°56' E 001°29'611.2
2018-Mar-11 16:30N 50°51' E 001°25'611.5
2018-Mar-11 16:00N 50°46' E 001°22'610.9
2018-Mar-11 15:29N 50°41' E 001°17'511.1
2018-Mar-11 15:00N 50°38' E 001°11'1710.9
2018-Mar-11 13:27N 50°28' E 000°49'611.2
2018-Mar-11 12:54N 50°27' E 000°40'611.1
2018-Mar-11 12:24N 50°25' E 000°31'511.2
2018-Mar-11 12:00N 50°24' E 000°24'611.2
2018-Mar-11 11:30N 50°22' E 000°16'611.1
2018-Mar-11 10:59N 50°20' E 000°07'611.2
2018-Mar-11 10:28N 50°18' W 000°01'511.2
2018-Mar-11 10:00N 50°17' W 000°09'611.3
2018-Mar-11 09:29N 50°16' W 000°18'1211.2
2018-Mar-11 08:23N 50°13' W 000°37'511.1
2018-Mar-11 07:57N 50°11' W 000°44'611.2
2018-Mar-11 07:26N 50°10' W 000°53'511.1
2018-Mar-11 07:00N 50°09' W 000°60'511.0
2018-Mar-11 06:31N 50°07' W 001°08'611.1
2018-Mar-11 06:00N 50°06' W 001°16'510.8
2018-Mar-11 05:30N 50°04' W 001°24'611.0
2018-Mar-11 05:00N 50°03' W 001°33'511.0
2018-Mar-11 04:30N 50°02' W 001°41'510.9
2018-Mar-11 04:00N 50°00' W 001°49'611.0
2018-Mar-11 03:30N 49°59' W 001°58'611.1
2018-Mar-11 03:00N 49°58' W 002°06'1211.2
2018-Mar-11 01:54N 49°55' W 002°25'511.2
2018-Mar-11 01:27N 49°54' W 002°33'511.2
2018-Mar-11 01:00N 49°53' W 002°40'611.3
2018-Mar-11 00:30N 49°51' W 002°49'611.2
2018-Mar-11 00:00N 49°50' W 002°57'611.2
2018-Mar-10 23:28N 49°50' W 003°06'511.2
2018-Mar-10 23:00N 49°49' W 003°14'611.2
2018-Mar-10 22:30N 49°48' W 003°23'611.2
2018-Mar-10 22:00N 49°48' W 003°32'611.1
2018-Mar-10 21:30N 49°47' W 003°40'611.1
2018-Mar-10 21:00N 49°47' W 003°49'611.2
2018-Mar-10 20:30N 49°46' W 003°57'611.2
2018-Mar-10 19:56N 49°46' W 004°07'611.2
2018-Mar-10 19:24N 49°45' W 004°16'411.1
2018-Mar-10 19:00N 49°45' W 004°23'711.1
2018-Mar-10 18:22N 49°44' W 004°34'811.1
2018-Mar-10 17:41N 49°43' W 004°46'2211.1
2018-Mar-10 15:40N 49°42' W 005°20'1011.1
2018-Mar-10 14:44N 49°41' W 005°36'1111.1
2018-Mar-10 13:47N 49°40' W 005°52'1011.1
2018-Mar-10 12:56N 49°39' W 006°07'511.1
2018-Mar-10 12:28N 49°39' W 006°15'911.0
2018-Mar-10 11:40N 49°39' W 006°28'  

Dump ship's entire track history